Time;durP1;ratioP1;P1;durP2;ratioP2;P2;SDS_P1;SDS_P2;PMS_P1;PMS_P2;Temp;Humidity;BMP_temperature;BMP_pressure;BME280_temperature;BME280_humidity;BME280_pressure;Samples;Min_cycle;Max_cycle;Signal;HPM_P1;HPM_P2
2024/01/16 00:00:03;;;;;;;7.40;1.00;;;;;;;9.89;48.09;101002.03;5051549;28;20029;-76
2024/01/16 00:02:31;;;;;;;5.50;1.20;;;;;;;10.19;48.79;101003.63;5049763;28;20043;-76
2024/01/16 00:04:56;;;;;;;2.37;1.00;;;;;;;10.25;47.81;101002.69;5050294;28;20086;-76
2024/01/16 00:07:22;;;;;;;5.10;0.90;;;;;;;9.86;48.42;101007.25;5050841;28;20036;-76
2024/01/16 00:09:47;;;;;;;2.90;1.13;;;;;;;9.64;48.64;101020.41;5050539;28;20327;-76
2024/01/16 00:12:12;;;;;;;4.73;0.80;;;;;;;9.95;47.83;101022.88;5051282;28;20477;-76
2024/01/16 00:14:38;;;;;;;7.83;1.20;;;;;;;9.19;49.54;101023.94;5050922;28;20117;-76
2024/01/16 00:17:03;;;;;;;7.93;1.80;;;;;;;9.56;48.33;101016.06;5047857;28;20044;-76
2024/01/16 00:19:29;;;;;;;5.90;1.63;;;;;;;9.33;49.35;101025.69;5049733;28;20028;-76
2024/01/16 00:21:54;;;;;;;7.70;1.73;;;;;;;9.32;48.89;101023.94;5067018;28;20024;-76
2024/01/16 00:24:20;;;;;;;4.80;1.13;;;;;;;9.45;49.30;101029.13;5049463;28;20469;-76
2024/01/16 00:26:46;;;;;;;6.53;1.77;;;;;;;9.67;47.97;101025.59;5046563;28;20025;-76
2024/01/16 00:29:12;;;;;;;4.97;0.90;;;;;;;8.60;50.80;101037.88;5035781;28;20112;-76
2024/01/16 00:31:38;;;;;;;3.20;1.33;;;;;;;9.42;48.30;101034.34;5048904;28;20454;-76
2024/01/16 00:34:04;;;;;;;1.50;0.83;;;;;;;8.84;49.57;101025.72;5050325;28;20386;-76
2024/01/16 00:36:30;;;;;;;2.57;1.07;;;;;;;9.02;49.96;101023.97;5050761;28;20028;-76
2024/01/16 00:38:56;;;;;;;5.00;0.73;;;;;;;8.92;49.43;101033.53;5049651;28;20098;-76
2024/01/16 00:41:21;;;;;;;0.40;0.40;;;;;;;8.47;49.19;101026.53;5049616;28;20052;-75
2024/01/16 00:43:47;;;;;;;1.70;1.43;;;;;;;8.87;48.93;101038.75;5049335;28;20552;-74
2024/01/16 00:46:12;;;;;;;2.80;1.03;;;;;;;8.79;48.38;101045.69;5048657;28;20045;-74
2024/01/16 00:48:37;;;;;;;1.13;0.47;;;;;;;8.57;49.04;101042.19;5048437;28;20377;-74
2024/01/16 00:51:03;;;;;;;1.47;0.60;;;;;;;9.56;47.53;101039.53;5049482;28;20029;-74
2024/01/16 00:53:29;;;;;;;2.83;0.73;;;;;;;8.94;48.11;101037.00;5048097;28;20036;-74
2024/01/16 00:55:55;;;;;;;2.17;0.50;;;;;;;8.59;49.00;101036.13;5049673;28;20036;-74
2024/01/16 00:58:23;;;;;;;2.53;1.07;;;;;;;8.77;47.97;101039.63;5049906;28;20059;-75
2024/01/16 01:00:49;;;;;;;2.67;1.10;;;;;;;8.57;49.45;101052.59;5048818;28;20552;-74
2024/01/16 01:03:14;;;;;;;7.27;1.40;;;;;;;9.62;47.05;101037.78;5049546;28;20028;-75
2024/01/16 01:05:40;;;;;;;3.53;1.40;;;;;;;8.80;48.54;101039.63;5049539;28;20037;-74
2024/01/16 01:08:06;;;;;;;1.70;0.90;;;;;;;8.22;49.71;101046.41;5050792;28;20025;-74
2024/01/16 01:10:31;;;;;;;2.70;1.10;;;;;;;9.12;48.46;101033.53;5050251;28;20036;-75
2024/01/16 01:12:57;;;;;;;1.40;0.40;;;;;;;8.82;47.45;101030.06;5051593;28;20036;-74
2024/01/16 01:15:22;;;;;;;2.27;0.50;;;;;;;9.36;47.25;101037.00;5052892;28;20055;-75
2024/01/16 01:17:49;;;;;;;2.63;0.30;;;;;;;9.73;46.94;101037.75;5052772;28;20062;-74
2024/01/16 01:20:15;;;;;;;2.60;1.00;;;;;;;9.62;45.99;101043.00;5052016;28;20025;-74
2024/01/16 01:22:40;;;;;;;5.07;0.83;;;;;;;9.75;46.14;101043.81;5052886;28;20017;-74
2024/01/16 01:25:06;;;;;;;1.07;0.40;;;;;;;9.46;47.14;101036.09;5052584;28;20028;-74
2024/01/16 01:27:32;;;;;;;2.00;0.50;;;;;;;9.43;47.05;101046.53;5052980;28;20029;-74
2024/01/16 01:29:58;;;;;;;0.70;0.20;;;;;;;9.34;47.30;101048.28;5052553;28;20020;-74
2024/01/16 01:32:23;;;;;;;4.33;0.10;;;;;;;8.79;48.59;101043.06;5052734;28;20452;-74
2024/01/16 01:34:48;;;;;;;4.17;0.33;;;;;;;10.06;46.16;101045.47;5053061;28;20033;-74
2024/01/16 01:37:14;;;;;;;5.83;0.40;;;;;;;10.07;45.54;101044.56;5053902;28;20393;-75
2024/01/16 01:39:39;;;;;;;2.23;0.20;;;;;;;10.25;44.92;101064.53;5052656;28;20035;-75
2024/01/16 01:42:05;;;;;;;10.20;0.40;;;;;;;9.48;47.32;101076.09;5051972;28;20039;-75
2024/01/16 01:44:30;;;;;;;1.07;0.20;;;;;;;9.76;46.52;101076.03;5053122;28;20116;-76
2024/01/16 01:46:57;;;;;;;3.40;0.30;;;;;;;8.75;49.60;101081.31;5052504;28;20523;-75
2024/01/16 01:49:23;;;;;;;0.30;0.30;;;;;;;8.85;50.47;101077.00;5051823;28;20029;-74
2024/01/16 01:51:49;;;;;;;1.40;0.47;;;;;;;9.18;50.08;101072.66;5052365;28;20024;-74
2024/01/16 01:54:16;;;;;;;2.70;0.30;;;;;;;8.82;50.60;101079.59;5051990;28;20064;-74
2024/01/16 01:56:47;;;;;;;3.20;0.50;;;;;;;9.83;48.63;101077.75;5047821;28;20044;-74
2024/01/16 01:59:14;;;;;;;7.17;0.50;;;;;;;9.52;49.32;101072.63;5049685;28;20025;-74
2024/01/16 02:01:40;;;;;;;0.83;0.20;;;;;;;10.02;47.87;101074.19;5052373;28;20075;-74
2024/01/16 02:04:06;;;;;;;2.80;0.40;;;;;;;9.67;48.67;101059.53;5050844;28;20033;-74
2024/01/16 02:06:32;;;;;;;4.83;0.50;;;;;;;10.50;46.76;101058.31;5052018;28;20480;-74
2024/01/16 02:08:58;;;;;;;2.43;0.37;;;;;;;10.23;47.01;101056.69;5052800;28;20024;-76
2024/01/16 02:11:24;;;;;;;1.43;0.30;;;;;;;10.32;46.87;101056.66;5052186;28;20031;-75
2024/01/16 02:13:50;;;;;;;0.83;0.30;;;;;;;10.57;46.19;101048.69;5052710;28;20025;-74
2024/01/16 02:16:22;;;;;;;1.30;0.37;;;;;;;10.83;45.50;101047.66;5050522;28;20476;-74
2024/01/16 02:18:48;;;;;;;2.83;1.05;;;;;;;10.87;45.65;101054.59;5051554;28;20025;-74
2024/01/16 02:21:21;;;;;;;2.00;0.50;;;;;;;11.02;45.41;101046.63;5052217;28;20119;-75
2024/01/16 02:23:46;;;;;;;;;;;;;;;10.91;45.60;101050.19;5051206;28;20091;-75
2024/01/16 02:26:15;;;;;;;2.93;0.60;;;;;;;9.91;47.20;101055.09;5052239;28;19999;-75
2024/01/16 02:28:40;;;;;;;1.80;0.53;;;;;;;9.54;48.80;101049.97;5048142;28;20026;-74
2024/01/16 02:31:07;;;;;;;1.13;0.30;;;;;;;9.40;49.51;101051.78;5045769;28;20036;-74
2024/01/16 02:33:33;;;;;;;1.13;0.20;;;;;;;9.18;49.93;101054.41;5052378;28;20028;-74
2024/01/16 02:35:58;;;;;;;3.40;0.67;;;;;;;8.80;51.60;101060.47;5053450;28;20024;-74
2024/01/16 02:38:24;;;;;;;0.30;0.30;;;;;;;7.52;56.58;101063.44;5052185;28;20477;-75
2024/01/16 02:40:50;;;;;;;8.50;0.30;;;;;;;9.10;51.70;101053.53;5051224;28;20452;-75
2024/01/16 02:43:15;;;;;;;1.80;0.47;;;;;;;8.64;52.61;101054.34;5052159;28;20021;-74
2024/01/16 02:45:41;;;;;;;0.83;0.30;;;;;;;7.88;55.49;101046.28;5050822;28;20048;-74
2024/01/16 02:48:06;;;;;;;0.43;0.40;;;;;;;7.63;56.03;101050.50;5051550;28;20055;-75
2024/01/16 02:50:32;;;;;;;3.50;0.40;;;;;;;7.74;56.64;101053.16;5051995;28;20029;-74
2024/01/16 02:52:57;;;;;;;0.47;0.43;;;;;;;7.37;58.58;101048.59;5051188;28;20492;-74
2024/01/16 02:55:23;;;;;;;0.60;0.23;;;;;;;6.40;63.02;101055.56;5051159;28;20029;-74
2024/01/16 02:57:48;;;;;;;0.13;0.13;;;;;;;7.59;60.35;101044.41;5050826;28;20032;-75
2024/01/16 03:00:14;;;;;;;1.07;0.30;;;;;;;8.46;56.08;101029.13;5050947;28;20032;-74
2024/01/16 03:02:40;;;;;;;0.67;0.50;;;;;;;7.82;56.66;101046.28;5050272;28;20075;-74
2024/01/16 03:05:05;;;;;;;0.20;0.17;;;;;;;7.74;58.14;101037.56;5051524;28;20021;-74
2024/01/16 03:07:32;;;;;;;2.10;0.70;;;;;;;8.36;56.67;101033.44;5050582;28;20028;-74
2024/01/16 03:09:58;;;;;;;3.20;0.50;;;;;;;8.43;53.93;101036.91;5052320;28;20547;-74
2024/01/16 03:12:23;;;;;;;3.87;0.60;;;;;;;8.59;54.38;101036.13;5050320;28;20021;-74
2024/01/16 03:14:48;;;;;;;1.80;0.53;;;;;;;9.22;52.09;101040.47;5050039;28;20282;-74
2024/01/16 03:17:14;;;;;;;1.73;0.20;;;;;;;9.86;49.78;101028.13;5051132;28;20032;-75
2024/01/16 03:19:39;;;;;;;0.23;0.20;;;;;;;9.20;51.84;101029.16;5049427;28;20033;-74
2024/01/16 03:22:05;;;;;;;1.13;0.50;;;;;;;9.32;51.28;101018.72;5050562;28;20013;-75
2024/01/16 03:24:31;;;;;;;0.73;0.40;;;;;;;9.23;50.41;101023.97;5050465;28;20029;-75
2024/01/16 03:26:56;;;;;;;10.27;0.90;;;;;;;9.69;50.32;101017.75;5051293;28;20028;-75
2024/01/16 03:29:21;;;;;;;2.53;0.20;;;;;;;9.27;50.35;101030.03;5051000;28;20103;-75
2024/01/16 03:31:47;;;;;;;0.63;0.30;;;;;;;9.82;49.25;101018.56;5049952;28;20484;-74
2024/01/16 03:34:13;;;;;;;0.30;0.30;;;;;;;8.87;51.51;101015.28;5049984;28;20440;-75
2024/01/16 03:36:38;;;;;;;3.17;0.63;;;;;;;9.49;50.68;101015.19;5049533;28;20039;-75
2024/01/16 03:39:04;;;;;;;0.27;0.23;;;;;;;9.99;49.20;101021.97;5050597;28;20028;-75
2024/01/16 03:41:29;;;;;;;0.10;0.10;;;;;;;10.54;46.94;101014.75;5050768;28;20036;-74
2024/01/16 03:43:57;;;;;;;2.67;0.57;;;;;;;10.65;46.70;101007.69;5051022;28;20536;-75
2024/01/16 03:46:23;;;;;;;2.97;0.27;;;;;;;9.94;47.82;101021.13;5051558;28;20048;-75
2024/01/16 03:48:48;;;;;;;0.20;0.20;;;;;;;10.10;47.55;101024.56;5049413;28;20032;-75
2024/01/16 03:51:15;;;;;;;1.00;0.70;;;;;;;9.54;49.53;101020.41;5051931;28;20021;-75
2024/01/16 03:53:41;;;;;;;3.07;0.63;;;;;;;9.05;51.16;101016.16;5050151;28;20021;-75
2024/01/16 03:56:07;;;;;;;4.80;0.57;;;;;;;9.64;49.52;101023.00;5048632;28;20028;-75
2024/01/16 03:58:33;;;;;;;0.70;0.70;;;;;;;10.27;48.15;101011.38;5049741;28;20021;-75
2024/01/16 04:00:58;;;;;;;0.43;0.23;;;;;;;10.11;48.61;101014.97;5051319;28;20107;-75
2024/01/16 04:03:24;;;;;;;4.90;0.60;;;;;;;10.54;47.13;101014.75;5049700;28;20025;-75
2024/01/16 04:05:49;;;;;;;6.63;1.20;;;;;;;9.75;49.03;101022.94;5051174;28;20117;-75
2024/01/16 04:08:15;;;;;;;1.77;0.60;;;;;;;9.68;48.99;101027.34;5051726;28;20021;-75
2024/01/16 04:10:41;;;;;;;6.00;0.70;;;;;;;8.97;52.81;101027.47;5050191;28;20071;-75
2024/01/16 04:13:07;;;;;;;6.07;0.40;;;;;;;9.45;50.37;101034.34;5050241;28;20040;-75
2024/01/16 04:15:33;;;;;;;1.20;0.50;;;;;;;9.53;50.00;101029.13;5048866;28;20032;-75
2024/01/16 04:17:59;;;;;;;6.53;0.83;;;;;;;9.87;49.85;101036.84;5051145;28;20036;-75
2024/01/16 04:20:25;;;;;;;6.20;0.73;;;;;;;9.87;49.06;101029.00;5051448;28;20040;-75
2024/01/16 04:22:50;;;;;;;7.20;0.70;;;;;;;10.25;48.58;101014.88;5049446;28;20030;-75
2024/01/16 04:25:15;;;;;;;1.43;0.47;;;;;;;10.30;48.61;101016.63;5050525;28;20503;-76
2024/01/16 04:27:41;;;;;;;1.23;0.50;;;;;;;10.06;48.52;101027.19;5049967;28;20041;-75
2024/01/16 04:30:07;;;;;;;0.10;0.10;;;;;;;10.41;48.35;101016.56;5050103;28;20048;-75
2024/01/16 04:32:33;;;;;;;3.63;0.70;;;;;;;10.86;47.09;101005.78;5048934;28;20029;-75
2024/01/16 04:34:58;;;;;;;4.20;0.90;;;;;;;11.07;46.20;101006.47;5050062;28;20036;-75
2024/01/16 04:37:23;;;;;;;0.40;0.37;;;;;;;10.39;47.49;101004.41;5045936;28;20036;-75
2024/01/16 04:39:49;;;;;;;0.50;0.50;;;;;;;10.82;47.18;101001.47;5037398;28;20041;-76
2024/01/16 04:42:17;;;;;;;1.07;0.73;;;;;;;10.65;46.92;101005.06;5050529;28;20032;-76
2024/01/16 04:44:43;;;;;;;2.00;0.30;;;;;;;10.73;47.52;100997.19;5048964;28;20506;-75
2024/01/16 04:47:08;;;;;;;1.00;0.40;;;;;;;10.75;47.42;100999.78;5051511;28;20140;-75
2024/01/16 04:49:33;;;;;;;1.67;0.50;;;;;;;11.02;46.36;100996.91;5050185;28;20026;-75
2024/01/16 04:51:59;;;;;;;3.10;0.50;;;;;;;10.84;46.58;100997.94;5043229;28;20033;-75
2024/01/16 04:54:24;;;;;;;1.77;0.73;;;;;;;10.55;47.04;101006.03;5053864;28;20228;-75
2024/01/16 04:56:49;;;;;;;0.60;0.60;;;;;;;10.44;47.25;100992.16;5053285;28;20025;-75
2024/01/16 04:59:15;;;;;;;3.13;1.27;;;;;;;10.38;47.62;100992.22;5052555;28;20384;-75
2024/01/16 05:01:40;;;;;;;1.63;1.03;;;;;;;10.54;47.06;100988.59;5052288;28;20055;-75
2024/01/16 05:04:07;;;;;;;8.70;0.80;;;;;;;10.99;46.35;100985.59;5053638;28;20036;-75
2024/01/16 05:06:33;;;;;;;5.03;1.93;;;;;;;10.59;47.41;100976.38;5049200;28;20460;-75
2024/01/16 05:08:58;;;;;;;2.87;1.30;;;;;;;10.98;46.22;100979.53;5033828;28;20036;-75
2024/01/16 05:11:24;;;;;;;5.53;1.87;;;;;;;10.76;47.26;100978.00;5049865;28;20091;-76
2024/01/16 05:13:49;;;;;;;2.73;1.23;;;;;;;10.79;47.83;100977.97;5052212;28;20033;-76
2024/01/16 05:16:14;;;;;;;3.60;1.50;;;;;;;10.77;46.83;100967.50;5054763;28;20033;-76
2024/01/16 05:18:43;;;;;;;4.57;2.13;;;;;;;11.25;45.91;100956.59;5052997;28;20024;-76
2024/01/16 05:21:09;;;;;;;7.53;2.10;;;;;;;10.83;46.40;100954.38;5050322;28;20464;-77
2024/01/16 05:23:34;;;;;;;4.97;1.77;;;;;;;10.67;46.19;100958.88;5054103;28;20104;-76
2024/01/16 05:25:59;;;;;;;8.93;1.70;;;;;;;11.02;45.76;100948.97;5052677;28;20025;-76
2024/01/16 05:28:25;;;;;;;2.47;1.40;;;;;;;10.39;47.32;100944.31;5053406;28;20107;-77
2024/01/16 05:30:50;;;;;;;1.73;1.27;;;;;;;10.84;46.03;100950.03;5053729;28;20503;-75
2024/01/16 05:33:16;;;;;;;2.27;1.67;;;;;;;10.86;46.46;100945.63;5052802;28;20108;-76
2024/01/16 05:35:41;;;;;;;2.40;1.43;;;;;;;10.60;46.89;100946.72;5053925;28;20078;-77
2024/01/16 05:38:06;;;;;;;4.33;1.67;;;;;;;10.99;45.81;100941.13;5054210;28;20059;-76
2024/01/16 05:40:32;;;;;;;2.43;1.37;;;;;;;11.32;45.40;100937.31;5052063;28;20024;-75
2024/01/16 05:42:58;;;;;;;2.20;1.63;;;;;;;10.69;45.96;100930.13;5053159;28;20029;-76
2024/01/16 05:45:23;;;;;;;4.07;2.20;;;;;;;10.96;45.73;100929.00;5052664;28;20045;-76
2024/01/16 05:47:48;;;;;;;8.10;2.17;;;;;;;10.74;45.88;100927.44;5052222;28;20383;-76
2024/01/16 05:50:16;;;;;;;5.10;2.47;;;;;;;10.98;45.94;100926.34;5052838;28;20033;-76
2024/01/16 05:52:42;;;;;;;4.10;1.90;;;;;;;10.84;45.84;100921.25;5051732;28;20381;-75
2024/01/16 05:55:08;;;;;;;7.00;3.23;;;;;;;10.92;45.66;100919.44;5052373;28;20035;-76
2024/01/16 05:57:33;;;;;;;16.07;3.03;;;;;;;10.21;46.90;100917.38;5052004;28;20480;-75
2024/01/16 05:59:59;;;;;;;4.47;2.30;;;;;;;10.67;46.57;100927.53;5051677;28;20584;-76
2024/01/16 06:02:24;;;;;;;9.87;3.23;;;;;;;10.89;45.40;100919.44;5052080;28;20029;-76
2024/01/16 06:04:51;;;;;;;3.77;2.03;;;;;;;10.55;46.12;100922.41;5053700;28;20035;-75
2024/01/16 06:07:16;;;;;;;7.60;2.40;;;;;;;10.86;45.57;100916.88;5056727;28;20025;-75
2024/01/16 06:09:42;;;;;;;4.60;2.33;;;;;;;10.64;46.54;100917.06;5053324;28;20025;-75
2024/01/16 06:12:08;;;;;;;5.90;2.47;;;;;;;10.76;45.60;100915.25;5054372;28;20041;-76
2024/01/16 06:14:34;;;;;;;9.53;3.03;;;;;;;10.78;45.36;100910.84;5052031;28;20071;-76
2024/01/16 06:17:00;;;;;;;4.03;2.40;;;;;;;10.92;45.20;100905.47;5051940;28;20485;-76
2024/01/16 06:19:26;;;;;;;7.77;2.37;;;;;;;10.91;45.04;100909.84;5053563;28;20041;-76
2024/01/16 06:21:51;;;;;;;10.57;2.33;;;;;;;10.74;44.68;100914.38;5048362;28;20029;-77
2024/01/16 06:24:17;;;;;;;7.27;3.07;;;;;;;10.77;45.03;100911.72;5037143;28;20065;-76
2024/01/16 06:26:42;;;;;;;6.97;2.63;;;;;;;10.76;45.03;100915.25;5051620;28;20124;-76
2024/01/16 06:29:09;;;;;;;8.80;2.20;;;;;;;10.93;44.51;100921.16;5052184;28;20032;-75
2024/01/16 06:31:34;;;;;;;3.17;2.17;;;;;;;10.92;44.27;100926.41;5068050;28;20041;-76
2024/01/16 06:34:00;;;;;;;7.23;3.47;;;;;;;10.69;45.25;100925.75;5052164;28;20090;-76
2024/01/16 06:36:26;;;;;;;7.27;3.40;;;;;;;10.25;45.41;100916.50;5052253;28;20492;-77
2024/01/16 06:38:51;;;;;;;8.93;2.70;;;;;;;10.99;44.81;100918.50;5052032;28;20515;-76
2024/01/16 06:41:16;;;;;;;6.90;2.13;;;;;;;10.58;45.22;100922.38;5051485;28;20068;-77
2024/01/16 06:43:42;;;;;;;6.33;2.33;;;;;;;11.01;44.06;100921.94;5050772;28;20017;-76
2024/01/16 06:46:07;;;;;;;10.60;2.17;;;;;;;10.99;44.43;100921.09;5052304;28;20052;-76
2024/01/16 06:48:35;;;;;;;5.40;2.57;;;;;;;10.94;43.97;100925.50;5051720;28;20100;-76
2024/01/16 06:51:01;;;;;;;3.43;2.27;;;;;;;10.64;44.59;100922.28;5052168;28;20025;-77
2024/01/16 06:53:26;;;;;;;4.17;2.23;;;;;;;10.43;45.09;100922.50;5050769;28;20036;-77
2024/01/16 06:55:51;;;;;;;5.83;2.30;;;;;;;10.59;44.75;100929.34;5050973;28;20029;-76
2024/01/16 06:58:17;;;;;;;2.87;1.60;;;;;;;10.50;44.83;100922.41;5052231;28;20029;-76
2024/01/16 07:00:43;;;;;;;4.30;2.10;;;;;;;10.61;44.57;100917.09;5050500;28;20112;-77
2024/01/16 07:03:08;;;;;;;8.83;1.83;;;;;;;10.48;44.82;100923.31;5047295;28;20021;-77
2024/01/16 07:05:33;;;;;;;5.00;2.17;;;;;;;10.68;44.41;100929.22;5030581;28;20117;-76
2024/01/16 07:07:59;;;;;;;7.17;2.00;;;;;;;10.52;44.42;100938.06;5043565;28;20115;-76
2024/01/16 07:10:24;;;;;;;10.43;3.00;;;;;;;10.63;44.28;100931.03;5050389;28;20041;-76
2024/01/16 07:12:51;;;;;;;14.43;2.20;;;;;;;10.44;44.65;100924.22;5046035;28;20071;-76
2024/01/16 07:15:18;;;;;;;6.43;1.70;;;;;;;10.50;44.85;100929.41;5031760;28;20029;-76
2024/01/16 07:17:43;;;;;;;4.63;2.00;;;;;;;10.42;44.46;100925.97;5039890;28;20067;-76
2024/01/16 07:20:09;;;;;;;2.43;1.63;;;;;;;10.68;44.63;100934.44;5049823;28;20064;-76
2024/01/16 07:22:36;;;;;;;6.13;1.93;;;;;;;10.56;44.63;100939.78;5050392;28;20025;-76
2024/01/16 07:25:02;;;;;;;5.87;2.20;;;;;;;10.66;44.55;100936.22;5050755;28;20033;-76
2024/01/16 07:27:27;;;;;;;9.20;1.60;;;;;;;10.77;44.41;100943.97;5050308;28;20051;-76
2024/01/16 07:29:52;;;;;;;10.10;1.70;;;;;;;10.62;44.43;100950.22;5051113;28;20079;-76
2024/01/16 07:32:18;;;;;;;6.80;1.47;;;;;;;10.33;44.76;100951.28;5049576;28;20123;-76
2024/01/16 07:34:44;;;;;;;3.73;1.27;;;;;;;11.09;44.07;100948.03;5051024;28;20119;-78
2024/01/16 07:37:09;;;;;;;2.67;1.43;;;;;;;10.76;43.96;100951.84;5050872;28;20039;-76
2024/01/16 07:39:34;;;;;;;2.57;1.93;;;;;;;10.73;43.64;100957.97;5049360;28;20032;-77
2024/01/16 07:42:00;;;;;;;3.30;1.00;;;;;;;10.62;44.07;100963.28;5051316;28;20024;-77
2024/01/16 07:44:26;;;;;;;9.50;1.40;;;;;;;10.25;44.62;100963.50;5046926;28;20026;-77
2024/01/16 07:46:51;;;;;;;3.43;1.93;;;;;;;10.26;44.97;100967.88;5048190;28;20059;-77
2024/01/16 07:49:16;;;;;;;4.47;1.23;;;;;;;10.27;44.52;100963.50;5050729;28;20055;-77
2024/01/16 07:51:42;;;;;;;9.10;2.00;;;;;;;9.99;45.31;100958.47;5048820;28;20488;-77
2024/01/16 07:54:09;;;;;;;1.67;1.13;;;;;;;10.19;45.01;100966.16;5050218;28;20037;-76
2024/01/16 07:56:36;;;;;;;6.50;1.73;;;;;;;9.73;46.12;100966.41;5046830;28;20060;-77
2024/01/16 07:59:02;;;;;;;5.37;1.80;;;;;;;9.86;45.04;100960.25;5046742;28;20071;-77
2024/01/16 08:01:29;;;;;;;2.60;1.60;;;;;;;9.15;46.76;100968.34;5066660;28;20029;-77
2024/01/16 08:03:55;;;;;;;3.33;1.57;;;;;;;9.64;45.90;100962.97;5035843;28;20060;-76
2024/01/16 08:06:21;;;;;;;8.57;1.53;;;;;;;10.32;44.36;100949.53;5035167;28;20071;-78
2024/01/16 08:08:47;;;;;;;3.87;1.70;;;;;;;9.47;45.78;100954.34;5040523;28;20032;-76
2024/01/16 08:11:12;;;;;;;5.30;1.60;;;;;;;9.80;44.86;100957.69;5050045;28;20120;-77
2024/01/16 08:13:38;;;;;;;3.47;1.47;;;;;;;10.13;44.79;100954.00;5049416;28;20060;-76
2024/01/16 08:16:04;;;;;;;2.33;0.93;;;;;;;9.41;45.28;100960.44;5050281;28;20032;-76
2024/01/16 08:18:31;;;;;;;2.57;1.37;;;;;;;9.45;45.63;100956.06;5051394;28;20063;-77
2024/01/16 08:20:57;;;;;;;6.90;2.00;;;;;;;9.89;45.10;100955.03;5051714;28;20044;-77
2024/01/16 08:23:22;;;;;;;4.30;1.53;;;;;;;10.00;44.51;100960.16;5054121;28;20457;-76
2024/01/16 08:25:48;;;;;;;1.50;1.00;;;;;;;9.42;45.57;100966.53;5054045;28;20544;-76
2024/01/16 08:28:14;;;;;;;2.07;1.30;;;;;;;10.09;44.87;100960.13;5054801;28;20021;-76
2024/01/16 08:30:39;;;;;;;2.83;0.93;;;;;;;10.16;45.23;100958.34;5053778;28;20029;-76
2024/01/16 08:33:04;;;;;;;5.33;1.67;;;;;;;9.55;45.56;100963.00;5054306;28;20112;-76
2024/01/16 08:35:30;;;;;;;2.30;1.63;;;;;;;9.57;45.64;100965.59;5052882;28;20121;-76
2024/01/16 08:37:55;;;;;;;3.27;1.40;;;;;;;9.03;46.62;100976.19;5069398;28;20028;-76
2024/01/16 08:40:21;;;;;;;3.10;2.00;;;;;;;9.59;45.84;100975.16;5054049;28;20174;-76
2024/01/16 08:42:51;;;;;;;1.57;0.97;;;;;;;9.52;46.41;100968.25;5054058;28;20032;-76
2024/01/16 08:45:17;;;;;;;3.50;1.40;;;;;;;9.33;46.98;100957.84;5053624;28;20032;-77
2024/01/16 08:47:42;;;;;;;7.37;1.53;;;;;;;9.02;47.04;100962.25;5053865;28;20049;-76
2024/01/16 08:50:09;;;;;;;1.27;1.03;;;;;;;9.33;46.85;100963.06;5053490;28;20040;-77
2024/01/16 08:52:34;;;;;;;9.77;1.67;;;;;;;8.45;47.98;100954.47;5054032;28;20029;-76
2024/01/16 08:55:00;;;;;;;2.80;1.30;;;;;;;8.57;48.62;100959.69;5054026;28;20032;-77
2024/01/16 08:57:25;;;;;;;4.57;1.20;;;;;;;9.60;46.04;100961.25;5052878;28;20493;-76
2024/01/16 08:59:51;;;;;;;1.73;0.90;;;;;;;9.24;46.67;100963.09;5052947;28;20028;-77
2024/01/16 09:02:17;;;;;;;5.70;0.90;;;;;;;8.64;47.61;100958.81;5053969;28;20013;-77
2024/01/16 09:04:42;;;;;;;3.63;1.30;;;;;;;10.14;44.95;100953.13;5052671;28;20029;-76
2024/01/16 09:07:08;;;;;;;7.37;2.17;;;;;;;9.18;46.60;100963.09;5053868;28;20090;-77
2024/01/16 09:09:34;;;;;;;2.73;1.03;;;;;;;9.48;46.93;100966.50;5053449;28;20036;-76
2024/01/16 09:11:59;;;;;;;6.63;0.87;;;;;;;8.92;47.14;100966.63;5053677;28;20029;-76
2024/01/16 09:14:24;;;;;;;4.13;1.53;;;;;;;9.43;46.62;100958.69;5052660;28;20033;-78
2024/01/16 09:16:50;;;;;;;6.87;1.53;;;;;;;9.22;46.91;100964.84;5053018;28;20032;-77
2024/01/16 09:19:16;;;;;;;2.10;1.40;;;;;;;9.54;45.70;100968.22;5052292;28;20110;-76
2024/01/16 09:21:41;;;;;;;8.33;2.00;;;;;;;9.92;44.35;100968.06;5054424;28;20567;-76
2024/01/16 09:24:08;;;;;;;2.03;1.50;;;;;;;9.87;44.71;100980.25;5057470;28;20104;-76
2024/01/16 09:26:33;;;;;;;2.03;1.40;;;;;;;10.00;43.69;100963.66;5052656;28;20472;-76
2024/01/16 09:28:59;;;;;;;3.87;1.17;;;;;;;10.13;44.27;100960.97;5049660;28;20104;-77
2024/01/16 09:31:24;;;;;;;4.53;1.20;;;;;;;9.09;45.34;100971.81;5051039;28;20061;-76
2024/01/16 09:33:50;;;;;;;4.77;1.30;;;;;;;9.33;45.29;100970.88;5050141;28;20025;-77
2024/01/16 09:36:15;;;;;;;7.57;1.53;;;;;;;9.59;44.53;100969.94;5054518;28;20107;-76
2024/01/16 09:38:41;;;;;;;5.67;1.80;;;;;;;9.45;45.00;100966.50;5052711;28;20530;-76
2024/01/16 09:41:07;;;;;;;3.70;1.53;;;;;;;9.39;45.06;100974.38;5051840;28;20064;-76
2024/01/16 09:43:33;;;;;;;2.07;1.27;;;;;;;10.38;43.45;100960.84;5053595;28;20021;-76
2024/01/16 09:46:05;;;;;;;1.80;1.60;;;;;;;10.79;42.98;100957.03;5053488;28;20045;-76
2024/01/16 09:48:31;;;;;;;3.40;2.25;;;;;;;9.59;44.15;100967.34;5053336;28;20088;-77
2024/01/16 09:50:57;;;;;;;2.53;1.33;;;;;;;9.87;44.74;100959.38;5052889;28;20480;-76
2024/01/16 09:53:22;;;;;;;3.90;1.27;;;;;;;10.20;43.97;100952.22;5052013;28;20028;-76
2024/01/16 09:55:50;;;;;;;4.33;1.33;;;;;;;11.08;42.09;100948.91;5052188;28;20694;-76
2024/01/16 09:58:19;;;;;;;5.83;2.20;;;;;;;9.42;44.36;100956.09;5052449;28;20035;-77
2024/01/16 10:00:45;;;;;;;8.73;2.30;;;;;;;10.16;44.26;100945.28;5047972;28;20025;-76
2024/01/16 10:03:12;;;;;;;6.00;2.10;;;;;;;10.17;44.14;100947.03;5044219;28;20083;-76
2024/01/16 10:05:41;;;;;;;5.70;2.57;;;;;;;9.81;44.27;100946.38;5052197;28;20112;-76
2024/01/16 10:08:07;;;;;;;3.70;2.37;;;;;;;9.45;44.18;100953.44;5051907;28;20021;-76
2024/01/16 10:10:33;;;;;;;4.23;2.27;;;;;;;9.88;44.01;100950.69;5053231;28;20120;-75
2024/01/16 10:12:59;;;;;;;6.10;3.13;;;;;;;9.93;43.73;100948.03;5053329;28;20662;-76
2024/01/16 10:15:25;;;;;;;4.80;2.20;;;;;;;10.12;43.46;100938.34;5051729;28;20120;-75
2024/01/16 10:17:50;;;;;;;7.17;2.83;;;;;;;9.76;43.84;100940.28;5051259;28;20108;-75
2024/01/16 10:20:18;;;;;;;8.20;2.60;;;;;;;9.98;43.94;100931.44;5052209;28;20092;-76
2024/01/16 10:22:54;;;;;;;9.70;3.17;;;;;;;10.53;43.53;100939.81;5051195;28;20024;-75
2024/01/16 10:25:21;;;;;;;7.73;2.40;;;;;;;9.96;43.74;100935.84;5051939;28;20115;-76
2024/01/16 10:27:47;;;;;;;9.80;3.00;;;;;;;10.95;41.99;100935.09;5051912;28;20053;-76
2024/01/16 10:30:12;;;;;;;2.90;2.20;;;;;;;11.62;41.50;100940.47;5050766;28;20419;-75
2024/01/16 10:32:42;;;;;;;4.77;2.30;;;;;;;11.43;41.23;100933.69;5051011;28;20443;-75
2024/01/16 10:35:08;;;;;;;6.27;2.17;;;;;;;11.52;41.55;100938.81;5052993;28;20021;-76
2024/01/16 10:37:44;;;;;;;10.40;2.67;;;;;;;11.54;41.53;100921.38;5047516;28;20087;-75
2024/01/16 10:40:10;;;;;;;9.27;3.13;;;;;;;11.86;40.61;100917.44;5050138;28;20029;-77
2024/01/16 10:42:37;;;;;;;6.50;2.00;;;;;;;11.92;40.83;100921.72;5051587;28;20083;-77
2024/01/16 10:45:03;;;;;;;1.93;0.90;;;;;;;10.38;40.81;100929.50;5054551;28;20078;-77
2024/01/16 10:47:34;;;;;;;1.70;1.10;;;;;;;11.53;39.41;100927.47;5052132;28;20056;-77
2024/01/16 10:50:00;;;;;;;3.37;1.20;;;;;;;11.89;39.14;100917.38;5051847;28;20032;-76
2024/01/16 10:52:27;;;;;;;3.47;1.13;;;;;;;12.22;37.22;100920.44;5051966;28;20025;-76
2024/01/16 10:54:56;;;;;;;6.50;1.50;;;;;;;12.87;37.51;100917.59;5048732;28;20027;-76
2024/01/16 10:57:24;;;;;;;7.37;1.10;;;;;;;12.46;36.26;100913.06;5031892;28;20033;-76
2024/01/16 11:00:20;;;;;;;2.87;1.03;;;;;;;13.00;36.54;100901.63;5049847;28;20037;-76
2024/01/16 11:02:56;;;;;;;3.70;0.60;;;;;;;13.27;35.22;100907.22;5048974;28;20040;-77
2024/01/16 11:05:22;;;;;;;3.00;1.10;;;;;;;13.30;34.97;100901.91;5050453;28;20025;-76
2024/01/16 11:07:50;;;;;;;0.90;0.70;;;;;;;12.31;35.81;100893.19;5050231;28;20028;-74
2024/01/16 11:10:16;;;;;;;1.53;0.77;;;;;;;10.23;36.76;100897.34;5051083;28;20033;-74
2024/01/16 11:12:43;;;;;;;1.07;0.50;;;;;;;11.15;37.07;100889.53;5049133;28;20025;-74
2024/01/16 11:15:12;;;;;;;4.60;1.27;;;;;;;11.63;36.64;100884.56;5051052;28;20039;-74
2024/01/16 11:17:38;;;;;;;0.80;0.53;;;;;;;10.53;38.57;100893.63;5050553;28;20113;-75
2024/01/16 11:20:09;;;;;;;3.60;0.97;;;;;;;11.26;37.99;100892.88;5050866;28;20119;-74
2024/01/16 11:22:38;;;;;;;2.45;0.93;;;;;;;10.15;38.30;100886.06;5050351;28;20025;-73